NOK992 KMEM-KORD
Flight info
| Callsign | NOK992 |
|---|---|
| Flight time | N/A |
| Altitude | 40000 |
| Route | JTEEE5 ODATE FTZ TRTLL6 |
| Aircraft | A343/H-SDE2E3FGHIJ4J5M1RWXY/LB1D1 |
Departure
| Time | N/A |
|---|---|
| Airport | Memphis International Airport (KMEM) |
Arrival
| Time | 2026-05-06 16:18 |
|---|---|
| Airport | Chicago O'Hare International Airport (KORD) |
| Time | Latitude | Longitude | Altitude | Speed | Heading |
|---|---|---|---|---|---|
| 2026-05-06 15:30 | 37.69800 | -90.64740 | 40067 ft | 439 kts | 329° |
| 2026-05-06 15:30 | 37.75723 | -90.66639 | 40071 ft | 438 kts | 329° |
| 2026-05-06 15:31 | 37.81624 | -90.68534 | 40073 ft | 437 kts | 329° |
| 2026-05-06 15:31 | 37.87514 | -90.70432 | 40079 ft | 436 kts | 329° |
| 2026-05-06 15:32 | 37.96315 | -90.73270 | 40112 ft | 437 kts | 329° |
| 2026-05-06 15:32 | 38.02196 | -90.75170 | 40091 ft | 436 kts | 329° |
| 2026-05-06 15:33 | 38.08074 | -90.77072 | 40101 ft | 436 kts | 329° |
| 2026-05-06 15:33 | 38.13971 | -90.78984 | 40086 ft | 437 kts | 329° |
| 2026-05-06 15:34 | 38.19869 | -90.80900 | 40113 ft | 438 kts | 329° |
| 2026-05-06 15:34 | 38.25772 | -90.82819 | 40083 ft | 437 kts | 329° |
| 2026-05-06 15:35 | 38.31632 | -90.84728 | 40081 ft | 437 kts | 329° |
| 2026-05-06 15:35 | 38.37541 | -90.86657 | 40079 ft | 438 kts | 329° |
| 2026-05-06 15:36 | 38.43446 | -90.88587 | 40076 ft | 438 kts | 329° |
| 2026-05-06 15:36 | 38.49348 | -90.90519 | 40067 ft | 437 kts | 329° |
| 2026-05-06 15:37 | 38.55246 | -90.92454 | 40073 ft | 437 kts | 329° |
| 2026-05-06 15:37 | 38.61114 | -90.94382 | 40092 ft | 437 kts | 329° |
| 2026-05-06 15:38 | 38.67195 | -90.95868 | 40113 ft | 464 kts | 341° |
| 2026-05-06 15:38 | 38.70508 | -90.95709 | 40073 ft | 489 kts | 353° |
| 2026-05-06 15:38 | 38.73906 | -90.94689 | 40074 ft | 515 kts | 5° |
| 2026-05-06 15:39 | 38.80660 | -90.91148 | 40070 ft | 527 kts | 9° |
| 2026-05-06 15:39 | 38.87406 | -90.87440 | 40070 ft | 527 kts | 9° |
| 2026-05-06 15:40 | 38.93030 | -90.84368 | 40072 ft | 527 kts | 9° |
| 2026-05-06 15:40 | 39.00877 | -90.80089 | 40068 ft | 526 kts | 9° |
| 2026-05-06 15:41 | 39.07617 | -90.76412 | 40063 ft | 526 kts | 9° |
| 2026-05-06 15:41 | 39.14365 | -90.72724 | 40080 ft | 526 kts | 9° |
| 2026-05-06 15:42 | 39.21097 | -90.69035 | 40066 ft | 525 kts | 9° |
| 2026-05-06 15:42 | 39.27777 | -90.65371 | 40068 ft | 525 kts | 9° |
| 2026-05-06 15:43 | 39.34496 | -90.61677 | 40067 ft | 525 kts | 9° |
| 2026-05-06 15:43 | 39.41222 | -90.57970 | 40073 ft | 524 kts | 10° |
| 2026-05-06 15:44 | 39.46799 | -90.54843 | 40077 ft | 526 kts | 11° |
| 2026-05-06 15:44 | 39.53475 | -90.50915 | 40079 ft | 527 kts | 11° |
| 2026-05-06 15:45 | 39.60151 | -90.46993 | 40094 ft | 527 kts | 11° |
| 2026-05-06 15:45 | 39.66821 | -90.43078 | 40073 ft | 525 kts | 11° |
| 2026-05-06 15:46 | 39.73482 | -90.39167 | 40079 ft | 525 kts | 11° |
| 2026-05-06 15:46 | 39.76766 | -90.37236 | 39920 ft | 524 kts | 11° |
| 2026-05-06 15:46 | 39.80078 | -90.35282 | 39689 ft | 520 kts | 11° |
| 2026-05-06 15:47 | 39.83367 | -90.33341 | 39504 ft | 518 kts | 11° |
| 2026-05-06 15:47 | 39.86648 | -90.31408 | 39274 ft | 518 kts | 10° |
| 2026-05-06 15:47 | 39.89935 | -90.29469 | 39046 ft | 518 kts | 10° |
| 2026-05-06 15:47 | 39.93219 | -90.27520 | 38819 ft | 520 kts | 11° |
| 2026-05-06 15:48 | 39.96421 | -90.25155 | 38558 ft | 541 kts | 22° |
| 2026-05-06 15:48 | 39.99413 | -90.22084 | 38288 ft | 552 kts | 29° |
| 2026-05-06 15:48 | 40.02343 | -90.18804 | 38013 ft | 556 kts | 30° |
| 2026-05-06 15:48 | 40.05264 | -90.15498 | 37816 ft | 556 kts | 30° |
| 2026-05-06 15:49 | 40.08192 | -90.12186 | 37536 ft | 556 kts | 30° |
| 2026-05-06 15:49 | 40.11118 | -90.08880 | 37250 ft | 556 kts | 30° |
| 2026-05-06 15:49 | 40.14039 | -90.05579 | 37069 ft | 554 kts | 30° |
| 2026-05-06 15:49 | 40.16963 | -90.02280 | 37050 ft | 557 kts | 30° |
| 2026-05-06 15:50 | 40.22848 | -89.95630 | 37053 ft | 559 kts | 30° |
| 2026-05-06 15:50 | 40.28699 | -89.88998 | 37061 ft | 558 kts | 30° |
| 2026-05-06 15:51 | 40.34562 | -89.82337 | 37056 ft | 557 kts | 30° |
| 2026-05-06 15:51 | 40.40421 | -89.75676 | 37055 ft | 557 kts | 30° |
| 2026-05-06 15:52 | 40.46271 | -89.68997 | 37056 ft | 557 kts | 30° |
| 2026-05-06 15:52 | 40.52082 | -89.62348 | 37059 ft | 556 kts | 31° |
| 2026-05-06 15:53 | 40.57912 | -89.55662 | 37055 ft | 555 kts | 31° |
| 2026-05-06 15:53 | 40.63729 | -89.48978 | 37054 ft | 555 kts | 31° |
| 2026-05-06 15:54 | 40.69537 | -89.42287 | 37053 ft | 555 kts | 31° |
| 2026-05-06 15:54 | 40.75353 | -89.35570 | 37052 ft | 556 kts | 31° |
| 2026-05-06 15:55 | 40.81092 | -89.28723 | 36434 ft | 556 kts | 32° |
| 2026-05-06 15:55 | 40.83982 | -89.25265 | 35518 ft | 564 kts | 31° |
| 2026-05-06 15:55 | 40.86917 | -89.21760 | 34584 ft | 573 kts | 31° |
| 2026-05-06 15:56 | 40.89890 | -89.18206 | 33639 ft | 580 kts | 31° |
| 2026-05-06 15:56 | 40.92860 | -89.14648 | 32883 ft | 583 kts | 32° |
| 2026-05-06 15:56 | 40.95868 | -89.11033 | 32179 ft | 582 kts | 33° |
| 2026-05-06 15:56 | 40.98867 | -89.07425 | 31470 ft | 581 kts | 33° |
| 2026-05-06 15:57 | 41.01858 | -89.03825 | 30823 ft | 579 kts | 33° |
| 2026-05-06 15:57 | 41.04833 | -89.00240 | 30221 ft | 575 kts | 34° |
| 2026-05-06 15:57 | 41.07787 | -88.96677 | 29574 ft | 571 kts | 34° |
| 2026-05-06 15:57 | 41.10706 | -88.93152 | 28947 ft | 564 kts | 34° |
| 2026-05-06 15:58 | 41.13568 | -88.89687 | 27945 ft | 549 kts | 36° |
| 2026-05-06 15:58 | 41.16353 | -88.86312 | 26708 ft | 535 kts | 36° |
| 2026-05-06 15:58 | 41.19074 | -88.83016 | 25490 ft | 522 kts | 37° |
| 2026-05-06 15:58 | 41.21696 | -88.79840 | 24332 ft | 510 kts | 37° |
| 2026-05-06 15:59 | 41.24289 | -88.76700 | 23093 ft | 498 kts | 38° |
| 2026-05-06 15:59 | 41.26816 | -88.73630 | 21819 ft | 486 kts | 38° |
| 2026-05-06 15:59 | 41.29279 | -88.70636 | 20601 ft | 474 kts | 38° |
| 2026-05-06 15:59 | 41.31682 | -88.67711 | 19428 ft | 462 kts | 38° |
| 2026-05-06 16:00 | 41.34021 | -88.64862 | 18330 ft | 450 kts | 38° |
| 2026-05-06 16:00 | 41.36301 | -88.62082 | 17019 ft | 439 kts | 39° |
| 2026-05-06 16:00 | 41.38534 | -88.59377 | 15832 ft | 427 kts | 38° |
| 2026-05-06 16:00 | 41.40722 | -88.56784 | 14689 ft | 415 kts | 38° |
| 2026-05-06 16:01 | 41.42857 | -88.54261 | 13729 ft | 402 kts | 38° |
| 2026-05-06 16:01 | 41.44875 | -88.51865 | 13245 ft | 375 kts | 38° |
| 2026-05-06 16:01 | 41.46735 | -88.49650 | 12884 ft | 351 kts | 38° |
| 2026-05-06 16:01 | 41.48506 | -88.47542 | 12462 ft | 333 kts | 37° |
| 2026-05-06 16:02 | 41.50207 | -88.45521 | 11889 ft | 323 kts | 37° |
| 2026-05-06 16:02 | 41.51869 | -88.43543 | 11299 ft | 316 kts | 38° |
| 2026-05-06 16:02 | 41.53493 | -88.41607 | 10709 ft | 310 kts | 38° |
| 2026-05-06 16:02 | 41.55089 | -88.39707 | 10124 ft | 304 kts | 38° |
| 2026-05-06 16:03 | 41.56648 | -88.37851 | 9512 ft | 298 kts | 38° |
| 2026-05-06 16:03 | 41.58188 | -88.36012 | 8900 ft | 296 kts | 38° |
| 2026-05-06 16:03 | 41.59701 | -88.34204 | 8565 ft | 294 kts | 38° |
| 2026-05-06 16:03 | 41.61217 | -88.32392 | 8290 ft | 290 kts | 38° |
| 2026-05-06 16:04 | 41.62710 | -88.30619 | 8146 ft | 286 kts | 38° |
| 2026-05-06 16:04 | 41.64208 | -88.28845 | 8048 ft | 288 kts | 38° |
| 2026-05-06 16:04 | 41.65697 | -88.27071 | 7873 ft | 286 kts | 38° |
| 2026-05-06 16:04 | 41.67181 | -88.25302 | 7696 ft | 285 kts | 38° |
| 2026-05-06 16:05 | 41.68660 | -88.23542 | 7505 ft | 285 kts | 38° |
| 2026-05-06 16:05 | 41.70138 | -88.21782 | 7351 ft | 282 kts | 38° |
| 2026-05-06 16:05 | 41.71606 | -88.20030 | 7203 ft | 283 kts | 38° |
| 2026-05-06 16:05 | 41.73071 | -88.18279 | 7038 ft | 280 kts | 38° |
| 2026-05-06 16:06 | 41.74525 | -88.16542 | 6879 ft | 281 kts | 38° |
| 2026-05-06 16:06 | 41.75960 | -88.14828 | 6711 ft | 278 kts | 38° |
| 2026-05-06 16:06 | 41.77404 | -88.13099 | 6553 ft | 279 kts | 38° |
| 2026-05-06 16:06 | 41.78842 | -88.11379 | 6387 ft | 277 kts | 38° |
| 2026-05-06 16:07 | 41.80286 | -88.09654 | 6231 ft | 276 kts | 38° |
| 2026-05-06 16:07 | 41.81697 | -88.07926 | 6047 ft | 275 kts | 41° |
| 2026-05-06 16:07 | 41.83056 | -88.06111 | 5914 ft | 273 kts | 43° |
| 2026-05-06 16:07 | 41.84390 | -88.04305 | 5748 ft | 273 kts | 43° |
| 2026-05-06 16:08 | 41.85736 | -88.02498 | 5669 ft | 275 kts | 42° |
| 2026-05-06 16:08 | 41.87073 | -88.00693 | 5474 ft | 271 kts | 44° |
| 2026-05-06 16:08 | 41.88137 | -87.98602 | 5258 ft | 275 kts | 66° |
| 2026-05-06 16:08 | 41.88491 | -87.96108 | 5098 ft | 272 kts | 87° |
| 2026-05-06 16:09 | 41.88505 | -87.93548 | 4994 ft | 274 kts | 89° |
| 2026-05-06 16:09 | 41.88483 | -87.91027 | 4861 ft | 273 kts | 90° |
| 2026-05-06 16:09 | 41.88465 | -87.88491 | 4653 ft | 270 kts | 89° |
| 2026-05-06 16:09 | 41.88453 | -87.85957 | 4474 ft | 273 kts | 89° |
| 2026-05-06 16:10 | 41.88445 | -87.83445 | 4315 ft | 267 kts | 90° |
| 2026-05-06 16:10 | 41.88439 | -87.80943 | 4205 ft | 271 kts | 89° |
| 2026-05-06 16:10 | 41.88431 | -87.78405 | 4091 ft | 269 kts | 89° |
| 2026-05-06 16:10 | 41.88428 | -87.75891 | 3879 ft | 269 kts | 89° |
| 2026-05-06 16:11 | 41.88427 | -87.73397 | 3724 ft | 267 kts | 89° |
| 2026-05-06 16:11 | 41.88425 | -87.70897 | 3663 ft | 270 kts | 89° |
| 2026-05-06 16:11 | 41.88422 | -87.68397 | 3509 ft | 266 kts | 89° |
| 2026-05-06 16:11 | 41.88420 | -87.65919 | 3262 ft | 265 kts | 88° |
| 2026-05-06 16:12 | 41.88669 | -87.63518 | 3102 ft | 262 kts | 69° |
| 2026-05-06 16:12 | 41.89633 | -87.61525 | 2959 ft | 256 kts | 40° |
| 2026-05-06 16:12 | 41.91170 | -87.60387 | 2864 ft | 253 kts | 13° |
| 2026-05-06 16:12 | 41.92908 | -87.60332 | 2778 ft | 250 kts | 346° |
| 2026-05-06 16:13 | 41.94439 | -87.61313 | 2553 ft | 245 kts | 320° |
| 2026-05-06 16:13 | 41.95560 | -87.63052 | 2404 ft | 248 kts | 304° |
| 2026-05-06 16:13 | 41.96352 | -87.65110 | 2310 ft | 247 kts | 289° |
| 2026-05-06 16:13 | 41.96629 | -87.67330 | 2294 ft | 235 kts | 272° |
| 2026-05-06 16:14 | 41.96585 | -87.69457 | 2299 ft | 222 kts | 270° |
| 2026-05-06 16:14 | 41.96568 | -87.71461 | 2301 ft | 207 kts | 270° |
| 2026-05-06 16:14 | 41.96574 | -87.73286 | 2324 ft | 181 kts | 272° |
| 2026-05-06 16:14 | 41.96589 | -87.74844 | 2305 ft | 153 kts | 271° |
| 2026-05-06 16:15 | 41.96597 | -87.76175 | 2304 ft | 133 kts | 272° |
| 2026-05-06 16:15 | 41.96598 | -87.77382 | 2309 ft | 128 kts | 272° |
| 2026-05-06 16:15 | 41.96596 | -87.78594 | 2259 ft | 132 kts | 272° |
| 2026-05-06 16:15 | 41.96591 | -87.79827 | 2082 ft | 131 kts | 272° |
| 2026-05-06 16:16 | 41.96587 | -87.81058 | 1890 ft | 131 kts | 272° |
| 2026-05-06 16:16 | 41.96586 | -87.82256 | 1720 ft | 130 kts | 270° |
| 2026-05-06 16:16 | 41.96584 | -87.83488 | 1526 ft | 132 kts | 270° |
| 2026-05-06 16:16 | 41.96582 | -87.84710 | 1347 ft | 128 kts | 270° |
| 2026-05-06 16:17 | 41.96581 | -87.85894 | 1172 ft | 127 kts | 268° |
| 2026-05-06 16:17 | 41.96582 | -87.87091 | 1071 ft | 130 kts | 269° |
| 2026-05-06 16:17 | 41.96579 | -87.88313 | 873 ft | 129 kts | 269° |
| 2026-05-06 16:17 | 41.96576 | -87.89483 | 732 ft | 124 kts | 269° |
| 2026-05-06 16:18 | 41.96574 | -87.90597 | 674 ft | 103 kts | 269° |
| 2026-05-06 16:18 | 41.96578 | -87.91145 | 675 ft | 25 kts | 273° |
| 2026-05-06 16:18 | 41.96618 | -87.91377 | 673 ft | 28 kts | 292° |
| 2026-05-06 16:18 | 41.96637 | -87.91430 | 675 ft | 0 kts | 297° |
| 2026-05-06 16:20 | 41.96638 | -87.91433 | 675 ft | 3 kts | 298° |
| 2026-05-06 16:20 | 41.96650 | -87.91460 | 676 ft | 0 kts | 299° |
| 2026-05-06 16:22 | 41.96665 | -87.91496 | 677 ft | 14 kts | 300° |
| 2026-05-06 16:22 | 41.96718 | -87.91625 | 678 ft | 16 kts | 294° |
| 2026-05-06 16:23 | 41.96737 | -87.91766 | 680 ft | 15 kts | 271° |
| 2026-05-06 16:23 | 41.96738 | -87.91904 | 680 ft | 16 kts | 269° |
| 2026-05-06 16:23 | 41.96747 | -87.92052 | 677 ft | 12 kts | 300° |
| 2026-05-06 16:23 | 41.96791 | -87.92081 | 677 ft | 0 kts | 354° |
| 2026-05-06 16:28 | 41.96800 | -87.92082 | 677 ft | 3 kts | 354° |
| 2026-05-06 16:28 | 41.96836 | -87.92084 | 677 ft | 8 kts | 359° |
| 2026-05-06 16:28 | 41.96892 | -87.92085 | 678 ft | 8 kts | 359° |
| 2026-05-06 16:28 | 41.96950 | -87.92086 | 679 ft | 9 kts | 359° |
| 2026-05-06 16:29 | 41.97017 | -87.92076 | 679 ft | 10 kts | 26° |
| 2026-05-06 16:29 | 41.97038 | -87.91982 | 679 ft | 15 kts | 88° |
| 2026-05-06 16:29 | 41.97040 | -87.91835 | 681 ft | 17 kts | 90° |
| 2026-05-06 16:30 | 41.97040 | -87.91529 | 682 ft | 19 kts | 90° |
| 2026-05-06 16:30 | 41.97040 | -87.91404 | 681 ft | 21 kts | 89° |
| 2026-05-06 16:30 | 41.97042 | -87.91118 | 677 ft | 21 kts | 90° |
| 2026-05-06 16:30 | 41.97042 | -87.90899 | 672 ft | 26 kts | 90° |
| 2026-05-06 16:31 | 41.97042 | -87.90649 | 670 ft | 28 kts | 90° |
| 2026-05-06 16:31 | 41.97042 | -87.90382 | 669 ft | 29 kts | 90° |
| 2026-05-06 16:31 | 41.97042 | -87.90214 | 671 ft | 13 kts | 90° |
| 2026-05-06 16:31 | 41.97042 | -87.90090 | 673 ft | 13 kts | 90° |
| 2026-05-06 16:32 | 41.97043 | -87.89958 | 674 ft | 15 kts | 90° |
| 2026-05-06 16:32 | 41.97043 | -87.89807 | 674 ft | 17 kts | 90° |
| 2026-05-06 16:32 | 41.97044 | -87.89639 | 674 ft | 19 kts | 90° |
| 2026-05-06 16:32 | 41.97044 | -87.89448 | 671 ft | 22 kts | 89° |